sensor_id;sensor_type;location;lat;lon;timestamp;P1;durP1;ratioP1;P2;durP2;ratioP2
934;SDS011;454;53.254;10.400;2022-07-23T04:01:17;3.40;;;3.30;;
934;SDS011;454;53.254;10.400;2022-07-23T04:03:44;3.50;;;3.30;;
934;SDS011;454;53.254;10.400;2022-07-23T04:06:11;3.50;;;3.30;;
934;SDS011;454;53.254;10.400;2022-07-23T04:08:38;3.13;;;3.03;;
934;SDS011;454;53.254;10.400;2022-07-23T04:11:05;3.17;;;3.00;;
934;SDS011;454;53.254;10.400;2022-07-23T04:13:31;4.03;;;3.73;;
934;SDS011;454;53.254;10.400;2022-07-23T04:15:58;3.77;;;3.67;;
934;SDS011;454;53.254;10.400;2022-07-23T04:18:26;3.33;;;3.13;;
934;SDS011;454;53.254;10.400;2022-07-23T04:20:53;2.83;;;2.70;;
934;SDS011;454;53.254;10.400;2022-07-23T04:23:20;3.13;;;2.83;;
934;SDS011;454;53.254;10.400;2022-07-23T04:25:47;3.47;;;3.23;;
934;SDS011;454;53.254;10.400;2022-07-23T04:28:14;4.23;;;3.23;;
934;SDS011;454;53.254;10.400;2022-07-23T04:30:41;3.37;;;3.23;;
934;SDS011;454;53.254;10.400;2022-07-23T04:33:07;3.50;;;3.23;;
934;SDS011;454;53.254;10.400;2022-07-23T04:35:36;3.17;;;2.80;;
934;SDS011;454;53.254;10.400;2022-07-23T04:38:03;3.93;;;3.40;;
934;SDS011;454;53.254;10.400;2022-07-23T04:40:30;3.33;;;3.17;;
934;SDS011;454;53.254;10.400;2022-07-23T04:42:56;9.53;;;4.10;;
934;SDS011;454;53.254;10.400;2022-07-23T04:45:23;3.40;;;3.30;;
934;SDS011;454;53.254;10.400;2022-07-23T04:47:50;7.00;;;3.43;;
934;SDS011;454;53.254;10.400;2022-07-23T04:50:17;3.27;;;3.00;;
934;SDS011;454;53.254;10.400;2022-07-23T04:52:47;3.60;;;3.30;;
934;SDS011;454;53.254;10.400;2022-07-23T04:55:14;3.20;;;3.07;;
934;SDS011;454;53.254;10.400;2022-07-23T04:57:41;3.77;;;3.30;;
934;SDS011;454;53.254;10.400;2022-07-23T05:00:08;5.23;;;3.60;;
934;SDS011;454;53.254;10.400;2022-07-23T05:02:35;4.00;;;3.77;;
934;SDS011;454;53.254;10.400;2022-07-23T05:05:02;4.10;;;3.80;;
934;SDS011;454;53.254;10.400;2022-07-23T05:07:29;4.63;;;4.20;;
934;SDS011;454;53.254;10.400;2022-07-23T05:09:57;4.10;;;3.83;;
934;SDS011;454;53.254;10.400;2022-07-23T05:12:24;4.40;;;4.13;;
934;SDS011;454;53.254;10.400;2022-07-23T05:14:51;4.90;;;4.60;;
934;SDS011;454;53.254;10.400;2022-07-23T05:17:17;3.87;;;3.63;;
934;SDS011;454;53.254;10.400;2022-07-23T05:19:44;3.80;;;3.60;;
934;SDS011;454;53.254;10.400;2022-07-23T05:22:11;3.87;;;3.57;;
934;SDS011;454;53.254;10.400;2022-07-23T05:24:38;5.03;;;4.73;;
934;SDS011;454;53.254;10.400;2022-07-23T05:27:06;5.40;;;4.97;;
934;SDS011;454;53.254;10.400;2022-07-23T05:29:32;4.93;;;4.50;;
934;SDS011;454;53.254;10.400;2022-07-23T05:31:59;5.17;;;4.73;;
934;SDS011;454;53.254;10.400;2022-07-23T05:34:26;4.93;;;4.50;;
934;SDS011;454;53.254;10.400;2022-07-23T05:36:52;4.00;;;3.80;;
934;SDS011;454;53.254;10.400;2022-07-23T05:39:19;5.30;;;4.90;;
934;SDS011;454;53.254;10.400;2022-07-23T05:41:46;4.97;;;4.53;;
934;SDS011;454;53.254;10.400;2022-07-23T05:44:14;4.10;;;3.90;;
934;SDS011;454;53.254;10.400;2022-07-23T05:46:41;4.47;;;4.27;;
934;SDS011;454;53.254;10.400;2022-07-23T05:49:07;4.23;;;3.83;;
934;SDS011;454;53.254;10.400;2022-07-23T05:51:34;4.50;;;4.10;;
934;SDS011;454;53.254;10.400;2022-07-23T05:54:01;3.77;;;3.43;;
934;SDS011;454;53.254;10.400;2022-07-23T05:56:27;4.13;;;3.93;;
934;SDS011;454;53.254;10.400;2022-07-23T05:58:54;4.80;;;4.43;;
934;SDS011;454;53.254;10.400;2022-07-23T06:01:22;3.90;;;3.70;;
934;SDS011;454;53.254;10.400;2022-07-23T06:03:49;8.53;;;4.07;;
934;SDS011;454;53.254;10.400;2022-07-23T06:06:16;4.33;;;4.03;;
934;SDS011;454;53.254;10.400;2022-07-23T06:08:42;3.43;;;3.33;;
934;SDS011;454;53.254;10.400;2022-07-23T06:11:09;4.17;;;3.90;;
934;SDS011;454;53.254;10.400;2022-07-23T06:13:36;3.97;;;3.43;;
934;SDS011;454;53.254;10.400;2022-07-23T06:16:03;2.93;;;2.60;;
934;SDS011;454;53.254;10.400;2022-07-23T06:18:31;2.10;;;2.00;;
934;SDS011;454;53.254;10.400;2022-07-23T06:20:58;2.37;;;2.20;;
934;SDS011;454;53.254;10.400;2022-07-23T06:23:25;2.00;;;1.90;;
934;SDS011;454;53.254;10.400;2022-07-23T06:25:52;2.70;;;2.60;;
934;SDS011;454;53.254;10.400;2022-07-23T06:28:19;2.50;;;2.40;;
934;SDS011;454;53.254;10.400;2022-07-23T06:30:45;2.30;;;2.00;;
934;SDS011;454;53.254;10.400;2022-07-23T06:33:13;2.00;;;1.90;;
934;SDS011;454;53.254;10.400;2022-07-23T06:35:41;2.03;;;1.60;;
934;SDS011;454;53.254;10.400;2022-07-23T06:38:08;1.80;;;1.70;;
934;SDS011;454;53.254;10.400;2022-07-23T06:40:34;2.63;;;1.60;;
934;SDS011;454;53.254;10.400;2022-07-23T06:43:01;4.20;;;1.40;;
934;SDS011;454;53.254;10.400;2022-07-23T06:45:28;2.30;;;1.40;;
934;SDS011;454;53.254;10.400;2022-07-23T06:47:55;1.92;;;1.70;;
934;SDS011;454;53.254;10.400;2022-07-23T06:50:21;3.70;;;1.30;;
934;SDS011;454;53.254;10.400;2022-07-23T06:52:49;1.40;;;1.40;;
934;SDS011;454;53.254;10.400;2022-07-23T06:55:16;1.43;;;1.43;;
934;SDS011;454;53.254;10.400;2022-07-23T06:57:43;1.70;;;1.23;;
934;SDS011;454;53.254;10.400;2022-07-23T07:00:10;1.57;;;1.57;;
934;SDS011;454;53.254;10.400;2022-07-23T07:02:37;1.93;;;1.10;;
934;SDS011;454;53.254;10.400;2022-07-23T07:05:04;1.13;;;1.03;;
934;SDS011;454;53.254;10.400;2022-07-23T07:07:31;1.67;;;1.10;;
934;SDS011;454;53.254;10.400;2022-07-23T07:09:59;1.13;;;1.13;;
934;SDS011;454;53.254;10.400;2022-07-23T07:12:26;1.60;;;1.10;;
934;SDS011;454;53.254;10.400;2022-07-23T07:14:53;2.53;;;1.00;;
934;SDS011;454;53.254;10.400;2022-07-23T07:17:20;0.90;;;0.90;;
934;SDS011;454;53.254;10.400;2022-07-23T07:19:46;1.47;;;1.23;;
934;SDS011;454;53.254;10.400;2022-07-23T07:22:13;1.47;;;1.00;;
934;SDS011;454;53.254;10.400;2022-07-23T07:24:40;3.17;;;1.10;;
934;SDS011;454;53.254;10.400;2022-07-23T07:27:08;1.17;;;1.00;;
934;SDS011;454;53.254;10.400;2022-07-23T07:29:35;3.10;;;1.30;;
934;SDS011;454;53.254;10.400;2022-07-23T07:32:02;4.03;;;1.23;;
934;SDS011;454;53.254;10.400;2022-07-23T07:34:29;1.83;;;1.13;;
934;SDS011;454;53.254;10.400;2022-07-23T07:36:56;1.10;;;1.03;;
934;SDS011;454;53.254;10.400;2022-07-23T07:39:23;1.70;;;1.57;;
934;SDS011;454;53.254;10.400;2022-07-23T07:41:49;2.87;;;1.20;;
934;SDS011;454;53.254;10.400;2022-07-23T07:44:17;0.90;;;0.90;;
934;SDS011;454;53.254;10.400;2022-07-23T07:46:44;0.90;;;0.90;;
934;SDS011;454;53.254;10.400;2022-07-23T07:49:11;1.00;;;1.00;;
934;SDS011;454;53.254;10.400;2022-07-23T07:51:37;1.07;;;1.07;;
934;SDS011;454;53.254;10.400;2022-07-23T07:54:04;3.67;;;1.03;;
934;SDS011;454;53.254;10.400;2022-07-23T07:56:31;1.00;;;0.90;;
934;SDS011;454;53.254;10.400;2022-07-23T07:58:58;1.73;;;1.20;;
934;SDS011;454;53.254;10.400;2022-07-23T08:01:27;1.13;;;0.87;;
934;SDS011;454;53.254;10.400;2022-07-23T08:03:54;2.47;;;1.20;;
934;SDS011;454;53.254;10.400;2022-07-23T08:06:20;0.90;;;0.90;;
934;SDS011;454;53.254;10.400;2022-07-23T08:08:47;1.20;;;1.20;;
934;SDS011;454;53.254;10.400;2022-07-23T08:11:14;1.53;;;1.00;;
934;SDS011;454;53.254;10.400;2022-07-23T08:13:41;1.40;;;1.40;;
934;SDS011;454;53.254;10.400;2022-07-23T08:16:09;2.10;;;0.90;;
934;SDS011;454;53.254;10.400;2022-07-23T08:18:37;1.00;;;0.90;;
934;SDS011;454;53.254;10.400;2022-07-23T08:21:04;1.00;;;0.90;;
934;SDS011;454;53.254;10.400;2022-07-23T08:23:31;0.87;;;0.87;;
934;SDS011;454;53.254;10.400;2022-07-23T08:25:57;0.90;;;0.90;;
934;SDS011;454;53.254;10.400;2022-07-23T08:28:26;2.00;;;1.00;;
934;SDS011;454;53.254;10.400;2022-07-23T08:30:53;1.30;;;1.20;;
934;SDS011;454;53.254;10.400;2022-07-23T08:33:20;1.70;;;1.10;;
934;SDS011;454;53.254;10.400;2022-07-23T08:35:49;1.30;;;1.30;;
934;SDS011;454;53.254;10.400;2022-07-23T08:38:19;1.33;;;1.33;;
934;SDS011;454;53.254;10.400;2022-07-23T08:40:48;1.13;;;1.13;;
934;SDS011;454;53.254;10.400;2022-07-23T08:43:17;1.60;;;1.50;;
934;SDS011;454;53.254;10.400;2022-07-23T08:45:46;1.10;;;1.10;;
934;SDS011;454;53.254;10.400;2022-07-23T08:48:15;1.33;;;1.23;;
934;SDS011;454;53.254;10.400;2022-07-23T08:50:46;1.20;;;1.20;;
934;SDS011;454;53.254;10.400;2022-07-23T08:53:15;1.43;;;1.40;;
934;SDS011;454;53.254;10.400;2022-07-23T08:55:43;2.63;;;1.30;;
934;SDS011;454;53.254;10.400;2022-07-23T08:58:11;1.70;;;1.00;;
934;SDS011;454;53.254;10.400;2022-07-23T09:00:38;2.70;;;1.73;;
934;SDS011;454;53.254;10.400;2022-07-23T09:03:05;1.43;;;1.43;;
934;SDS011;454;53.254;10.400;2022-07-23T09:05:32;1.20;;;1.20;;
934;SDS011;454;53.254;10.400;2022-07-23T09:08:08;1.57;;;1.53;;
934;SDS011;454;53.254;10.400;2022-07-23T09:10:42;1.60;;;1.60;;
934;SDS011;454;53.254;10.400;2022-07-23T09:13:22;1.90;;;1.80;;
934;SDS011;454;53.254;10.400;2022-07-23T09:15:57;1.27;;;1.27;;
934;SDS011;454;53.254;10.400;2022-07-23T09:18:29;1.97;;;1.90;;
934;SDS011;454;53.254;10.400;2022-07-23T09:21:07;1.80;;;1.70;;
934;SDS011;454;53.254;10.400;2022-07-23T09:23:40;2.63;;;1.90;;
934;SDS011;454;53.254;10.400;2022-07-23T09:26:21;2.10;;;2.10;;
934;SDS011;454;53.254;10.400;2022-07-23T09:29:00;3.70;;;1.90;;
934;SDS011;454;53.254;10.400;2022-07-23T09:31:34;2.60;;;2.60;;
934;SDS011;454;53.254;10.400;2022-07-23T09:34:10;1.40;;;1.40;;
934;SDS011;454;53.254;10.400;2022-07-23T09:36:38;2.10;;;1.30;;
934;SDS011;454;53.254;10.400;2022-07-23T09:39:08;1.80;;;1.80;;
934;SDS011;454;53.254;10.400;2022-07-23T09:41:36;1.40;;;1.40;;
934;SDS011;454;53.254;10.400;2022-07-23T09:44:08;1.20;;;1.20;;
934;SDS011;454;53.254;10.400;2022-07-23T09:46:39;2.40;;;1.33;;
934;SDS011;454;53.254;10.400;2022-07-23T09:49:11;1.10;;;1.10;;
934;SDS011;454;53.254;10.400;2022-07-23T09:51:46;1.50;;;1.50;;
934;SDS011;454;53.254;10.400;2022-07-23T09:54:27;1.57;;;1.40;;
934;SDS011;454;53.254;10.400;2022-07-23T09:57:00;1.53;;;1.43;;
934;SDS011;454;53.254;10.400;2022-07-23T09:59:32;1.37;;;1.27;;
934;SDS011;454;53.254;10.400;2022-07-23T10:02:00;1.70;;;1.60;;
934;SDS011;454;53.254;10.400;2022-07-23T10:04:28;1.50;;;1.20;;
934;SDS011;454;53.254;10.400;2022-07-23T10:06:56;1.20;;;1.20;;
934;SDS011;454;53.254;10.400;2022-07-23T10:09:28;1.07;;;1.07;;
934;SDS011;454;53.254;10.400;2022-07-23T10:11:56;1.43;;;1.33;;
934;SDS011;454;53.254;10.400;2022-07-23T10:14:32;1.00;;;1.00;;
934;SDS011;454;53.254;10.400;2022-07-23T10:17:00;1.20;;;1.13;;
934;SDS011;454;53.254;10.400;2022-07-23T10:19:27;1.80;;;1.10;;
934;SDS011;454;53.254;10.400;2022-07-23T10:21:55;1.00;;;0.80;;
934;SDS011;454;53.254;10.400;2022-07-23T10:24:30;1.03;;;1.03;;
934;SDS011;454;53.254;10.400;2022-07-23T10:27:32;1.00;;;1.00;;
934;SDS011;454;53.254;10.400;2022-07-23T10:30:20;0.90;;;0.90;;
934;SDS011;454;53.254;10.400;2022-07-23T10:32:58;1.30;;;1.20;;
934;SDS011;454;53.254;10.400;2022-07-23T10:35:36;1.00;;;1.00;;
934;SDS011;454;53.254;10.400;2022-07-23T10:38:10;1.90;;;0.90;;
934;SDS011;454;53.254;10.400;2022-07-23T10:40:54;1.17;;;1.13;;
934;SDS011;454;53.254;10.400;2022-07-23T10:43:23;0.97;;;0.97;;
934;SDS011;454;53.254;10.400;2022-07-23T10:45:50;1.00;;;1.00;;
934;SDS011;454;53.254;10.400;2022-07-23T10:48:18;0.77;;;0.77;;
934;SDS011;454;53.254;10.400;2022-07-23T10:53:54;0.70;;;0.70;;
934;SDS011;454;53.254;10.400;2022-07-23T10:59:26;0.83;;;0.73;;
934;SDS011;454;53.254;10.400;2022-07-23T11:01:52;0.70;;;0.50;;
934;SDS011;454;53.254;10.400;2022-07-23T11:04:19;0.70;;;0.70;;
934;SDS011;454;53.254;10.400;2022-07-23T11:07:15;0.50;;;0.50;;
934;SDS011;454;53.254;10.400;2022-07-23T11:09:42;0.70;;;0.70;;
934;SDS011;454;53.254;10.400;2022-07-23T11:15:02;0.63;;;0.63;;
934;SDS011;454;53.254;10.400;2022-07-23T11:17:32;0.60;;;0.60;;
934;SDS011;454;53.254;10.400;2022-07-23T11:20:13;3.40;;;1.27;;
934;SDS011;454;53.254;10.400;2022-07-23T11:22:47;0.60;;;0.60;;
934;SDS011;454;53.254;10.400;2022-07-23T11:28:11;0.70;;;0.70;;
934;SDS011;454;53.254;10.400;2022-07-23T11:30:42;1.00;;;0.83;;
934;SDS011;454;53.254;10.400;2022-07-23T11:33:18;0.80;;;0.70;;
934;SDS011;454;53.254;10.400;2022-07-23T11:35:47;0.80;;;0.80;;
934;SDS011;454;53.254;10.400;2022-07-23T11:38:16;0.87;;;0.87;;
934;SDS011;454;53.254;10.400;2022-07-23T11:40:45;0.63;;;0.63;;
934;SDS011;454;53.254;10.400;2022-07-23T11:43:14;1.00;;;0.83;;
934;SDS011;454;53.254;10.400;2022-07-23T11:45:44;0.60;;;0.60;;
934;SDS011;454;53.254;10.400;2022-07-23T11:48:15;0.70;;;0.70;;
934;SDS011;454;53.254;10.400;2022-07-23T11:50:43;0.77;;;0.77;;
934;SDS011;454;53.254;10.400;2022-07-23T11:53:10;0.60;;;0.60;;
934;SDS011;454;53.254;10.400;2022-07-23T11:55:37;0.73;;;0.73;;
934;SDS011;454;53.254;10.400;2022-07-23T11:58:04;0.73;;;0.70;;
934;SDS011;454;53.254;10.400;2022-07-23T12:00:31;1.17;;;0.70;;
934;SDS011;454;53.254;10.400;2022-07-23T12:03:00;0.80;;;0.80;;
934;SDS011;454;53.254;10.400;2022-07-23T12:05:30;0.80;;;0.60;;
934;SDS011;454;53.254;10.400;2022-07-23T12:07:59;0.60;;;0.60;;
934;SDS011;454;53.254;10.400;2022-07-23T12:10:27;1.17;;;0.70;;
934;SDS011;454;53.254;10.400;2022-07-23T12:12:55;0.67;;;0.67;;
934;SDS011;454;53.254;10.400;2022-07-23T12:15:23;0.40;;;0.40;;
934;SDS011;454;53.254;10.400;2022-07-23T12:17:52;0.73;;;0.73;;
934;SDS011;454;53.254;10.400;2022-07-23T12:20:21;0.70;;;0.70;;
934;SDS011;454;53.254;10.400;2022-07-23T12:22:50;0.73;;;0.73;;
934;SDS011;454;53.254;10.400;2022-07-23T12:25:20;0.50;;;0.50;;
934;SDS011;454;53.254;10.400;2022-07-23T12:27:57;0.80;;;0.60;;
934;SDS011;454;53.254;10.400;2022-07-23T12:30:26;3.20;;;0.83;;
934;SDS011;454;53.254;10.400;2022-07-23T12:32:55;0.80;;;0.80;;
934;SDS011;454;53.254;10.400;2022-07-23T12:35:29;2.27;;;0.80;;
934;SDS011;454;53.254;10.400;2022-07-23T12:37:59;0.63;;;0.40;;
934;SDS011;454;53.254;10.400;2022-07-23T12:40:28;0.73;;;0.60;;
934;SDS011;454;53.254;10.400;2022-07-23T12:42:57;1.57;;;0.60;;
934;SDS011;454;53.254;10.400;2022-07-23T12:45:25;0.57;;;0.57;;
934;SDS011;454;53.254;10.400;2022-07-23T12:47:53;0.67;;;0.60;;
934;SDS011;454;53.254;10.400;2022-07-23T12:50:34;0.60;;;0.60;;
934;SDS011;454;53.254;10.400;2022-07-23T12:53:04;1.70;;;0.90;;
934;SDS011;454;53.254;10.400;2022-07-23T12:55:31;2.10;;;0.80;;
934;SDS011;454;53.254;10.400;2022-07-23T12:58:05;0.50;;;0.50;;
934;SDS011;454;53.254;10.400;2022-07-23T13:03:32;0.60;;;0.60;;
934;SDS011;454;53.254;10.400;2022-07-23T13:06:03;0.67;;;0.63;;
934;SDS011;454;53.254;10.400;2022-07-23T13:08:32;1.33;;;0.60;;
934;SDS011;454;53.254;10.400;2022-07-23T13:10:59;1.00;;;0.83;;
934;SDS011;454;53.254;10.400;2022-07-23T13:13:27;1.87;;;0.63;;
934;SDS011;454;53.254;10.400;2022-07-23T13:15:56;0.50;;;0.50;;
934;SDS011;454;53.254;10.400;2022-07-23T13:18:23;0.67;;;0.67;;
934;SDS011;454;53.254;10.400;2022-07-23T13:20:50;1.17;;;0.73;;
934;SDS011;454;53.254;10.400;2022-07-23T13:23:18;1.20;;;1.20;;
934;SDS011;454;53.254;10.400;2022-07-23T13:25:46;0.80;;;0.80;;
934;SDS011;454;53.254;10.400;2022-07-23T13:28:13;2.00;;;1.70;;
934;SDS011;454;53.254;10.400;2022-07-23T13:30:41;1.27;;;0.97;;
934;SDS011;454;53.254;10.400;2022-07-23T13:33:08;0.90;;;0.90;;
934;SDS011;454;53.254;10.400;2022-07-23T13:35:35;0.93;;;0.90;;
934;SDS011;454;53.254;10.400;2022-07-23T13:38:03;0.80;;;0.70;;
934;SDS011;454;53.254;10.400;2022-07-23T13:40:33;2.30;;;1.07;;
934;SDS011;454;53.254;10.400;2022-07-23T13:43:01;0.70;;;0.60;;
934;SDS011;454;53.254;10.400;2022-07-23T13:45:28;0.93;;;0.80;;
934;SDS011;454;53.254;10.400;2022-07-23T13:47:55;1.33;;;1.33;;
934;SDS011;454;53.254;10.400;2022-07-23T13:50:21;0.63;;;0.60;;
934;SDS011;454;53.254;10.400;2022-07-23T13:52:48;0.67;;;0.67;;
934;SDS011;454;53.254;10.400;2022-07-23T13:55:15;0.60;;;0.57;;
934;SDS011;454;53.254;10.400;2022-07-23T13:57:43;0.43;;;0.43;;
934;SDS011;454;53.254;10.400;2022-07-23T14:00:10;0.60;;;0.60;;
934;SDS011;454;53.254;10.400;2022-07-23T14:02:38;0.70;;;0.60;;
934;SDS011;454;53.254;10.400;2022-07-23T14:05:07;0.60;;;0.60;;
934;SDS011;454;53.254;10.400;2022-07-23T14:07:35;0.83;;;0.77;;
934;SDS011;454;53.254;10.400;2022-07-23T14:10:03;0.97;;;0.70;;
934;SDS011;454;53.254;10.400;2022-07-23T14:12:30;1.03;;;0.70;;
934;SDS011;454;53.254;10.400;2022-07-23T14:14:59;0.60;;;0.47;;
934;SDS011;454;53.254;10.400;2022-07-23T14:17:26;2.23;;;0.60;;
934;SDS011;454;53.254;10.400;2022-07-23T14:19:52;0.87;;;0.70;;
934;SDS011;454;53.254;10.400;2022-07-23T14:22:19;0.50;;;0.50;;
934;SDS011;454;53.254;10.400;2022-07-23T14:24:46;0.60;;;0.50;;
934;SDS011;454;53.254;10.400;2022-07-23T14:27:13;0.70;;;0.70;;
934;SDS011;454;53.254;10.400;2022-07-23T14:29:39;2.20;;;1.00;;
934;SDS011;454;53.254;10.400;2022-07-23T14:32:07;0.80;;;0.80;;
934;SDS011;454;53.254;10.400;2022-07-23T14:34:34;1.00;;;1.00;;
934;SDS011;454;53.254;10.400;2022-07-23T14:37:01;1.37;;;1.03;;
934;SDS011;454;53.254;10.400;2022-07-23T14:39:28;0.80;;;0.80;;
934;SDS011;454;53.254;10.400;2022-07-23T14:41:55;1.70;;;1.00;;
934;SDS011;454;53.254;10.400;2022-07-23T14:44:22;0.70;;;0.70;;
934;SDS011;454;53.254;10.400;2022-07-23T14:46:49;0.60;;;0.60;;
934;SDS011;454;53.254;10.400;2022-07-23T14:49:17;0.87;;;0.73;;
934;SDS011;454;53.254;10.400;2022-07-23T14:51:44;0.80;;;0.80;;
934;SDS011;454;53.254;10.400;2022-07-23T14:54:10;2.00;;;1.13;;
934;SDS011;454;53.254;10.400;2022-07-23T14:56:38;1.10;;;1.00;;
934;SDS011;454;53.254;10.400;2022-07-23T14:59:05;0.93;;;0.70;;
934;SDS011;454;53.254;10.400;2022-07-23T15:01:33;0.60;;;0.60;;
934;SDS011;454;53.254;10.400;2022-07-23T15:04:00;1.90;;;0.70;;
934;SDS011;454;53.254;10.400;2022-07-23T15:06:28;0.87;;;0.87;;
934;SDS011;454;53.254;10.400;2022-07-23T15:08:55;0.80;;;0.80;;
934;SDS011;454;53.254;10.400;2022-07-23T15:11:21;0.70;;;0.70;;
934;SDS011;454;53.254;10.400;2022-07-23T15:13:48;0.60;;;0.60;;
934;SDS011;454;53.254;10.400;2022-07-23T15:16:15;0.80;;;0.80;;
934;SDS011;454;53.254;10.400;2022-07-23T15:18:42;0.77;;;0.77;;
934;SDS011;454;53.254;10.400;2022-07-23T15:21:08;0.57;;;0.57;;
934;SDS011;454;53.254;10.400;2022-07-23T15:23:36;0.70;;;0.70;;
934;SDS011;454;53.254;10.400;2022-07-23T15:26:05;0.70;;;0.70;;
934;SDS011;454;53.254;10.400;2022-07-23T15:28:32;0.90;;;0.83;;
934;SDS011;454;53.254;10.400;2022-07-23T15:30:58;1.00;;;0.97;;
934;SDS011;454;53.254;10.400;2022-07-23T15:33:25;0.70;;;0.70;;
934;SDS011;454;53.254;10.400;2022-07-23T15:35:52;0.90;;;0.90;;
934;SDS011;454;53.254;10.400;2022-07-23T15:38:20;0.80;;;0.80;;
934;SDS011;454;53.254;10.400;2022-07-23T15:40:48;1.00;;;1.00;;
934;SDS011;454;53.254;10.400;2022-07-23T15:43:15;0.70;;;0.70;;
934;SDS011;454;53.254;10.400;2022-07-23T15:45:41;0.80;;;0.80;;
934;SDS011;454;53.254;10.400;2022-07-23T15:48:09;0.93;;;0.83;;
934;SDS011;454;53.254;10.400;2022-07-23T15:50:35;1.90;;;1.00;;
934;SDS011;454;53.254;10.400;2022-07-23T15:53:02;0.80;;;0.80;;
934;SDS011;454;53.254;10.400;2022-07-23T15:55:29;1.63;;;1.07;;
934;SDS011;454;53.254;10.400;2022-07-23T15:57:57;1.00;;;1.00;;
934;SDS011;454;53.254;10.400;2022-07-23T16:00:24;0.70;;;0.70;;
934;SDS011;454;53.254;10.400;2022-07-23T16:02:51;0.83;;;0.80;;
934;SDS011;454;53.254;10.400;2022-07-23T16:05:18;0.80;;;0.60;;
934;SDS011;454;53.254;10.400;2022-07-23T16:07:57;0.90;;;0.90;;
934;SDS011;454;53.254;10.400;2022-07-23T16:10:23;0.60;;;0.60;;
934;SDS011;454;53.254;10.400;2022-07-23T16:12:50;1.13;;;0.80;;
934;SDS011;454;53.254;10.400;2022-07-23T16:15:18;0.60;;;0.60;;
934;SDS011;454;53.254;10.400;2022-07-23T16:17:46;1.10;;;0.87;;
934;SDS011;454;53.254;10.400;2022-07-23T16:20:12;0.90;;;0.90;;
934;SDS011;454;53.254;10.400;2022-07-23T16:22:39;0.93;;;0.93;;
934;SDS011;454;53.254;10.400;2022-07-23T16:25:06;0.90;;;0.70;;
934;SDS011;454;53.254;10.400;2022-07-23T16:27:35;1.07;;;1.07;;
934;SDS011;454;53.254;10.400;2022-07-23T16:30:03;0.60;;;0.50;;
934;SDS011;454;53.254;10.400;2022-07-23T16:32:32;1.50;;;1.43;;
934;SDS011;454;53.254;10.400;2022-07-23T16:34:59;0.97;;;0.93;;
934;SDS011;454;53.254;10.400;2022-07-23T16:37:26;1.70;;;1.03;;
934;SDS011;454;53.254;10.400;2022-07-23T16:39:53;1.60;;;1.30;;
934;SDS011;454;53.254;10.400;2022-07-23T16:42:20;1.00;;;1.00;;
934;SDS011;454;53.254;10.400;2022-07-23T16:44:47;0.87;;;0.80;;
934;SDS011;454;53.254;10.400;2022-07-23T16:47:13;0.83;;;0.83;;
934;SDS011;454;53.254;10.400;2022-07-23T16:49:41;2.10;;;0.77;;
934;SDS011;454;53.254;10.400;2022-07-23T16:52:08;1.93;;;0.80;;
934;SDS011;454;53.254;10.400;2022-07-23T16:54:35;0.73;;;0.73;;
934;SDS011;454;53.254;10.400;2022-07-23T16:57:02;1.60;;;0.97;;
934;SDS011;454;53.254;10.400;2022-07-23T16:59:29;1.27;;;1.27;;
934;SDS011;454;53.254;10.400;2022-07-23T17:01:55;1.10;;;1.00;;
934;SDS011;454;53.254;10.400;2022-07-23T17:04:22;1.43;;;0.73;;
934;SDS011;454;53.254;10.400;2022-07-23T17:06:50;1.17;;;1.03;;
934;SDS011;454;53.254;10.400;2022-07-23T17:09:18;1.93;;;0.90;;
934;SDS011;454;53.254;10.400;2022-07-23T17:11:45;0.90;;;0.90;;
934;SDS011;454;53.254;10.400;2022-07-23T17:14:11;0.77;;;0.77;;
934;SDS011;454;53.254;10.400;2022-07-23T17:16:38;1.07;;;1.00;;
934;SDS011;454;53.254;10.400;2022-07-23T17:19:05;0.90;;;0.90;;
934;SDS011;454;53.254;10.400;2022-07-23T17:21:32;1.00;;;0.93;;
934;SDS011;454;53.254;10.400;2022-07-23T17:24:00;0.80;;;0.80;;
934;SDS011;454;53.254;10.400;2022-07-23T17:26:26;1.00;;;1.00;;
934;SDS011;454;53.254;10.400;2022-07-23T17:28:53;0.90;;;0.90;;
934;SDS011;454;53.254;10.400;2022-07-23T17:31:20;0.70;;;0.70;;
934;SDS011;454;53.254;10.400;2022-07-23T17:33:47;0.83;;;0.83;;
934;SDS011;454;53.254;10.400;2022-07-23T17:36:13;1.40;;;1.40;;
934;SDS011;454;53.254;10.400;2022-07-23T17:38:40;1.10;;;1.10;;
934;SDS011;454;53.254;10.400;2022-07-23T17:41:08;1.80;;;1.80;;
934;SDS011;454;53.254;10.400;2022-07-23T17:43:35;1.17;;;1.17;;
934;SDS011;454;53.254;10.400;2022-07-23T17:46:02;1.93;;;1.83;;
934;SDS011;454;53.254;10.400;2022-07-23T17:48:29;2.17;;;2.07;;
934;SDS011;454;53.254;10.400;2022-07-23T17:50:55;2.00;;;1.90;;
934;SDS011;454;53.254;10.400;2022-07-23T17:53:22;7.20;;;3.67;;
934;SDS011;454;53.254;10.400;2022-07-23T17:55:50;2.73;;;2.50;;
934;SDS011;454;53.254;10.400;2022-07-23T17:58:19;6.20;;;3.27;;
934;SDS011;454;53.254;10.400;2022-07-23T18:00:45;2.13;;;2.13;;
934;SDS011;454;53.254;10.400;2022-07-23T18:03:12;1.93;;;1.80;;
934;SDS011;454;53.254;10.400;2022-07-23T18:05:39;1.40;;;1.40;;
934;SDS011;454;53.254;10.400;2022-07-23T18:08:06;1.40;;;1.40;;
934;SDS011;454;53.254;10.400;2022-07-23T18:10:33;1.30;;;1.30;;
934;SDS011;454;53.254;10.400;2022-07-23T18:13:01;1.33;;;1.33;;
934;SDS011;454;53.254;10.400;2022-07-23T18:15:29;1.70;;;1.10;;
934;SDS011;454;53.254;10.400;2022-07-23T18:17:56;1.47;;;1.47;;
934;SDS011;454;53.254;10.400;2022-07-23T18:20:23;1.40;;;1.40;;
934;SDS011;454;53.254;10.400;2022-07-23T18:22:50;1.10;;;1.10;;
934;SDS011;454;53.254;10.400;2022-07-23T18:25:17;1.10;;;1.03;;
934;SDS011;454;53.254;10.400;2022-07-23T18:27:45;1.40;;;1.40;;
934;SDS011;454;53.254;10.400;2022-07-23T18:30:12;1.80;;;1.70;;
934;SDS011;454;53.254;10.400;2022-07-23T18:32:40;1.03;;;1.03;;
934;SDS011;454;53.254;10.400;2022-07-23T18:35:07;1.30;;;1.30;;
934;SDS011;454;53.254;10.400;2022-07-23T18:37:34;1.13;;;1.13;;
934;SDS011;454;53.254;10.400;2022-07-23T18:40:01;1.30;;;1.30;;
934;SDS011;454;53.254;10.400;2022-07-23T18:42:29;1.33;;;1.33;;
934;SDS011;454;53.254;10.400;2022-07-23T18:44:55;1.50;;;1.40;;
934;SDS011;454;53.254;10.400;2022-07-23T18:47:22;1.90;;;1.30;;
934;SDS011;454;53.254;10.400;2022-07-23T18:49:50;2.23;;;1.20;;
934;SDS011;454;53.254;10.400;2022-07-23T18:52:17;1.47;;;1.47;;
934;SDS011;454;53.254;10.400;2022-07-23T18:54:44;1.17;;;1.17;;
934;SDS011;454;53.254;10.400;2022-07-23T18:57:10;3.80;;;1.30;;
934;SDS011;454;53.254;10.400;2022-07-23T18:59:37;1.90;;;1.90;;
934;SDS011;454;53.254;10.400;2022-07-23T19:02:04;3.70;;;2.50;;
934;SDS011;454;53.254;10.400;2022-07-23T19:04:31;4.97;;;4.40;;
934;SDS011;454;53.254;10.400;2022-07-23T19:06:59;3.97;;;3.20;;
934;SDS011;454;53.254;10.400;2022-07-23T19:09:26;4.13;;;3.83;;
934;SDS011;454;53.254;10.400;2022-07-23T19:11:52;4.53;;;4.13;;
934;SDS011;454;53.254;10.400;2022-07-23T19:14:19;3.80;;;3.50;;
934;SDS011;454;53.254;10.400;2022-07-23T19:16:46;3.50;;;3.30;;
934;SDS011;454;53.254;10.400;2022-07-23T19:19:12;3.20;;;3.00;;
934;SDS011;454;53.254;10.400;2022-07-23T19:21:39;3.87;;;3.10;;
934;SDS011;454;53.254;10.400;2022-07-23T19:24:07;2.50;;;2.30;;
934;SDS011;454;53.254;10.400;2022-07-23T19:26:34;2.67;;;2.47;;
934;SDS011;454;53.254;10.400;2022-07-23T19:29:01;2.70;;;2.60;;
934;SDS011;454;53.254;10.400;2022-07-23T19:31:28;2.50;;;2.40;;
934;SDS011;454;53.254;10.400;2022-07-23T19:33:55;4.30;;;3.80;;
934;SDS011;454;53.254;10.400;2022-07-23T19:36:21;4.00;;;3.70;;
934;SDS011;454;53.254;10.400;2022-07-23T19:38:48;3.27;;;3.07;;
934;SDS011;454;53.254;10.400;2022-07-23T19:41:16;5.83;;;2.80;;
934;SDS011;454;53.254;10.400;2022-07-23T19:43:43;3.40;;;3.20;;
934;SDS011;454;53.254;10.400;2022-07-23T19:46:10;2.50;;;2.50;;
934;SDS011;454;53.254;10.400;2022-07-23T19:48:37;2.37;;;2.37;;
934;SDS011;454;53.254;10.400;2022-07-23T19:51:04;2.00;;;1.90;;